Golden Compass — V7QZ4 — position and weather

sailwx.info

Track history (hours):
 
Tides and Currents Weather Stations Pressure Air Temp Water Temp Dewpoint Dewpoint Depression Visibility Wind Speed Wind Dir Waves Ship Positions

Golden Compass

Last reported at 2014-Oct-25 15:33 UTC. Time now 2014-Oct-25 16:08 UTC.
Position N 26°06' W 080°10'.

Length 46 m; draft 2.7 m.

Type: Pleasure craft. MMSI: 538070597.

Date/timePositionNaut miles runAvg speedWind from/ knotsBaromVisibWave heightAir tempDewpointWater temp
2014-Oct-25 15:33N 26°06' W 080°10'0 0.0
2014-Oct-25 14:33N 26°06' W 080°10'0 0.0
2014-Oct-25 13:33N 26°06' W 080°10'0 0.0
2014-Oct-25 12:33N 26°06' W 080°10'0 0.0
2014-Oct-25 11:33N 26°06' W 080°10'0 0.0
2014-Oct-25 10:33N 26°06' W 080°10'0 0.0
2014-Oct-25 09:33N 26°06' W 080°10'0 0.0
2014-Oct-25 08:33N 26°06' W 080°10'0 0.0
2014-Oct-25 07:33N 26°06' W 080°10'0 0.0
2014-Oct-25 06:33N 26°06' W 080°10'0 0.0
2014-Oct-25 05:33N 26°06' W 080°10'0 0.0
2014-Oct-25 04:33N 26°06' W 080°10'0 0.0
2014-Oct-25 03:33N 26°06' W 080°10'0 0.0
2014-Oct-25 02:33N 26°06' W 080°10'0 0.0
2014-Oct-25 01:33N 26°06' W 080°10'0 0.0
2014-Oct-25 00:33N 26°06' W 080°10'0 0.0
2014-Oct-24 23:33N 26°06' W 080°10'0 0.0
2014-Oct-24 22:33N 26°06' W 080°10'0 0.0
2014-Oct-24 21:33N 26°06' W 080°10'0 0.0
2014-Oct-24 20:33N 26°06' W 080°10'0 0.0
2014-Oct-24 19:33N 26°06' W 080°10'0 0.0
2014-Oct-24 18:33N 26°06' W 080°10'0 0.0
2014-Oct-24 17:33N 26°06' W 080°10'0 0.0
2014-Oct-24 16:33N 26°06' W 080°10'0 0.0
2014-Oct-24 15:33N 26°06' W 080°10'0 0.0
2014-Oct-24 14:33N 26°06' W 080°10'0 0.0
2014-Oct-24 13:33N 26°06' W 080°10'0 0.0
2014-Oct-24 12:33N 26°06' W 080°10'0 0.0
2014-Oct-24 11:33N 26°06' W 080°10'0 0.0
2014-Oct-24 10:33N 26°06' W 080°10'0 0.0
2014-Oct-24 09:33N 26°06' W 080°10'0 0.0
2014-Oct-24 08:33N 26°06' W 080°10'0 0.0
2014-Oct-24 07:33N 26°06' W 080°10'0 0.0
2014-Oct-24 06:33N 26°06' W 080°10'0 0.0
2014-Oct-24 05:33N 26°06' W 080°10'0 0.0
2014-Oct-24 04:33N 26°06' W 080°10'0 0.0
2014-Oct-24 03:33N 26°06' W 080°10'0 0.0
2014-Oct-24 02:33N 26°06' W 080°10'2 2.2
2014-Oct-24 01:33N 26°07' W 080°08'2 1.9
2014-Oct-24 00:33N 26°06' W 080°07'3 2.7
2014-Oct-23 23:33N 26°06' W 080°04'1 1.2
2014-Oct-23 22:33N 26°07' W 080°05'3 3.4
2014-Oct-23 21:33N 26°05' W 080°02'9 8.6
2014-Oct-23 20:33N 26°04' W 079°53'9 9.0
2014-Oct-23 19:33N 26°05' W 079°43'  
Track history (hours):
 
Tides and Currents Weather Stations Pressure Air Temp Water Temp Dewpoint Dewpoint Depression Visibility Wind Speed Wind Dir Waves Ship Positions

Golden Compass

Last reported at 2014-Oct-25 15:33 UTC. Time now 2014-Oct-25 16:08 UTC.
Position N 26°06' W 080°10'.

Length 46 m; draft 2.7 m.

Type: Pleasure craft. MMSI: 538070597.

Date/timePositionNaut miles runAvg speedWind from/ knotsBaromVisibWave heightAir tempDewpointWater temp
2014-Oct-25 15:33N 26°06' W 080°10'0 0.0
2014-Oct-25 14:33N 26°06' W 080°10'0 0.0
2014-Oct-25 13:33N 26°06' W 080°10'0 0.0
2014-Oct-25 12:33N 26°06' W 080°10'0 0.0
2014-Oct-25 11:33N 26°06' W 080°10'0 0.0
2014-Oct-25 10:33N 26°06' W 080°10'0 0.0
2014-Oct-25 09:33N 26°06' W 080°10'0 0.0
2014-Oct-25 08:33N 26°06' W 080°10'0 0.0
2014-Oct-25 07:33N 26°06' W 080°10'0 0.0
2014-Oct-25 06:33N 26°06' W 080°10'0 0.0
2014-Oct-25 05:33N 26°06' W 080°10'0 0.0
2014-Oct-25 04:33N 26°06' W 080°10'0 0.0
2014-Oct-25 03:33N 26°06' W 080°10'0 0.0
2014-Oct-25 02:33N 26°06' W 080°10'0 0.0
2014-Oct-25 01:33N 26°06' W 080°10'0 0.0
2014-Oct-25 00:33N 26°06' W 080°10'0 0.0
2014-Oct-24 23:33N 26°06' W 080°10'0 0.0
2014-Oct-24 22:33N 26°06' W 080°10'0 0.0
2014-Oct-24 21:33N 26°06' W 080°10'0 0.0
2014-Oct-24 20:33N 26°06' W 080°10'0 0.0
2014-Oct-24 19:33N 26°06' W 080°10'0 0.0
2014-Oct-24 18:33N 26°06' W 080°10'0 0.0
2014-Oct-24 17:33N 26°06' W 080°10'0 0.0
2014-Oct-24 16:33N 26°06' W 080°10'0 0.0
2014-Oct-24 15:33N 26°06' W 080°10'0 0.0
2014-Oct-24 14:33N 26°06' W 080°10'0 0.0
2014-Oct-24 13:33N 26°06' W 080°10'0 0.0
2014-Oct-24 12:33N 26°06' W 080°10'0 0.0
2014-Oct-24 11:33N 26°06' W 080°10'0 0.0
2014-Oct-24 10:33N 26°06' W 080°10'0 0.0
2014-Oct-24 09:33N 26°06' W 080°10'0 0.0
2014-Oct-24 08:33N 26°06' W 080°10'0 0.0
2014-Oct-24 07:33N 26°06' W 080°10'0 0.0
2014-Oct-24 06:33N 26°06' W 080°10'0 0.0
2014-Oct-24 05:33N 26°06' W 080°10'0 0.0
2014-Oct-24 04:33N 26°06' W 080°10'0 0.0
2014-Oct-24 03:33N 26°06' W 080°10'0 0.0
2014-Oct-24 02:33N 26°06' W 080°10'2 2.2
2014-Oct-24 01:33N 26°07' W 080°08'2 1.9
2014-Oct-24 00:33N 26°06' W 080°07'3 2.7
2014-Oct-23 23:33N 26°06' W 080°04'1 1.2
2014-Oct-23 22:33N 26°07' W 080°05'3 3.4
2014-Oct-23 21:33N 26°05' W 080°02'9 8.6
2014-Oct-23 20:33N 26°04' W 079°53'9 9.0
2014-Oct-23 19:33N 26°05' W 079°43'  

Dump ship's entire track history